Time;durP1;ratioP1;P1;durP2;ratioP2;P2;SDS_P1;SDS_P2;PMS_P1;PMS_P2;Temp;Humidity;BMP_temperature;BMP_pressure;BME280_temperature;BME280_humidity;BME280_pressure;Samples;Min_cycle;Max_cycle;Signal;HPM_P1;HPM_P2
2024/03/07 00:00:03;;;;;;;45.27;24.60;;;6.00;99.90;;;;;;5063419;28;20485;-67
2024/03/07 00:02:31;;;;;;;70.53;24.27;;;6.00;99.90;;;;;;5055441;28;20920;-67
2024/03/07 00:04:59;;;;;;;46.30;24.30;;;5.90;99.90;;;;;;5063706;28;20475;-67
2024/03/07 00:07:27;;;;;;;45.10;24.80;;;5.90;99.90;;;;;;5059038;28;20477;-67
2024/03/07 00:09:55;;;;;;;47.97;24.33;;;5.80;99.90;;;;;;5058228;28;20476;-66
2024/03/07 00:12:27;;;;;;;48.50;24.00;;;5.70;99.90;;;;;;5052434;28;20798;-67
2024/03/07 00:14:55;;;;;;;46.87;24.23;;;5.70;99.90;;;;;;5049885;28;20818;-67
2024/03/07 00:17:23;;;;;;;43.37;23.90;;;5.60;99.90;;;;;;5059252;28;20456;-67
2024/03/07 00:19:51;;;;;;;42.40;22.70;;;5.60;99.90;;;;;;5054353;28;20468;-67
2024/03/07 00:22:19;;;;;;;45.60;23.37;;;5.60;99.90;;;;;;5059762;28;20461;-67
2024/03/07 00:24:48;;;;;;;40.03;22.77;;;5.60;99.90;;;;;;5060408;28;20954;-67
2024/03/07 00:27:16;;;;;;;48.33;24.40;;;5.60;99.90;;;;;;5054993;28;20433;-67
2024/03/07 00:29:52;;;;;;;47.87;23.10;;;5.60;99.90;;;;;;5063426;28;20474;-67
2024/03/07 00:32:20;;;;;;;41.70;22.33;;;5.60;99.90;;;;;;5052419;28;20513;-67
2024/03/07 00:34:49;;;;;;;42.97;23.67;;;5.60;99.90;;;;;;5054365;28;20520;-67
2024/03/07 00:37:17;;;;;;;43.70;26.10;;;5.70;99.90;;;;;;5055068;28;20541;-67
2024/03/07 00:39:45;;;;;;;42.70;24.40;;;5.60;99.90;;;;;;5056602;28;20645;-68
2024/03/07 00:42:13;;;;;;;37.63;20.80;;;5.60;99.90;;;;;;5061646;28;20558;-67
2024/03/07 00:44:41;;;;;;;39.60;22.47;;;5.60;99.90;;;;;;5057455;28;20451;-68
2024/03/07 00:47:11;;;;;;;47.13;25.13;;;5.60;99.90;;;;;;5059170;28;21255;-68
2024/03/07 00:49:40;;;;;;;38.50;22.67;;;5.50;99.90;;;;;;5053012;28;21005;-67
2024/03/07 00:52:08;;;;;;;39.50;22.33;;;5.50;99.90;;;;;;5058388;28;20941;-67
2024/03/07 00:54:36;;;;;;;44.07;24.00;;;5.40;99.90;;;;;;5052833;28;21077;-67
2024/03/07 00:57:05;;;;;;;42.17;21.97;;;5.40;99.90;;;;;;5063065;28;20441;-68
2024/03/07 00:59:33;;;;;;;46.93;25.90;;;5.30;99.90;;;;;;5061985;28;20458;-68
2024/03/07 01:02:01;;;;;;;44.30;25.20;;;5.20;99.90;;;;;;5062116;28;20489;-67
2024/03/07 01:04:33;;;;;;;44.00;23.97;;;5.20;99.90;;;;;;5054104;28;20625;-67
2024/03/07 01:07:01;;;;;;;45.90;24.80;;;5.10;99.90;;;;;;5060096;28;20443;-67
2024/03/07 01:09:29;;;;;;;50.70;26.67;;;5.00;99.90;;;;;;5063856;28;20476;-67
2024/03/07 01:11:59;;;;;;;50.07;28.57;;;5.00;99.90;;;;;;5064268;28;20947;-68
2024/03/07 01:14:27;;;;;;;52.43;26.90;;;4.90;99.90;;;;;;5065087;28;20442;-67
2024/03/07 01:16:55;;;;;;;42.70;24.97;;;4.80;99.90;;;;;;5055384;28;20854;-67
2024/03/07 01:19:24;;;;;;;48.70;26.07;;;4.80;99.90;;;;;;5043872;28;20518;-66
2024/03/07 01:21:53;;;;;;;46.10;25.40;;;4.70;99.90;;;;;;5059179;28;20483;-66
2024/03/07 01:24:22;;;;;;;49.60;25.93;;;4.70;99.90;;;;;;5062706;28;20492;-66
2024/03/07 01:26:50;;;;;;;54.43;25.97;;;4.60;99.90;;;;;;5064249;28;20491;-66
2024/03/07 01:29:18;;;;;;;46.83;24.53;;;4.60;99.90;;;;;;5063794;28;20493;-66
2024/03/07 01:31:46;;;;;;;50.00;26.80;;;4.60;99.90;;;;;;5060628;28;21143;-66
2024/03/07 01:34:14;;;;;;;46.50;23.90;;;4.50;99.90;;;;;;5063620;28;20474;-66
2024/03/07 01:36:42;;;;;;;51.27;25.10;;;4.40;99.90;;;;;;5067356;28;20509;-66
2024/03/07 01:39:12;;;;;;;46.33;24.90;;;4.40;99.90;;;;;;5061162;28;20520;-66
2024/03/07 01:41:40;;;;;;;46.93;26.67;;;4.30;99.90;;;;;;5067066;28;20513;-66
2024/03/07 01:44:08;;;;;;;45.33;26.00;;;4.30;99.90;;;;;;5067607;28;20884;-66
2024/03/07 01:46:36;;;;;;;50.80;25.67;;;4.20;99.90;;;;;;5062044;28;20438;-66
2024/03/07 01:49:07;;;;;;;49.10;24.83;;;4.20;99.90;;;;;;5062156;28;20459;-69
2024/03/07 01:51:35;;;;;;;49.20;26.00;;;4.10;99.90;;;;;;5066208;28;20434;-69
2024/03/07 01:54:04;;;;;;;47.13;26.40;;;4.00;99.90;;;;;;5065629;28;20466;-67
2024/03/07 01:56:33;;;;;;;49.97;25.67;;;3.90;99.90;;;;;;5065558;28;20447;-66
2024/03/07 01:59:03;;;;;;;49.87;25.80;;;3.90;99.90;;;;;;5066510;28;20455;-66
2024/03/07 02:01:32;;;;;;;47.47;25.93;;;3.80;99.90;;;;;;5067825;28;20476;-68
2024/03/07 02:04:00;;;;;;;52.40;26.23;;;3.80;99.90;;;;;;5067178;28;20443;-67
2024/03/07 02:06:29;;;;;;;48.57;26.27;;;3.70;99.90;;;;;;5063136;28;20445;-67
2024/03/07 02:08:57;;;;;;;53.00;25.90;;;3.70;99.90;;;;;;5061344;28;20919;-67
2024/03/07 02:11:25;;;;;;;50.60;25.30;;;3.60;99.90;;;;;;5063456;28;20439;-68
2024/03/07 02:13:55;;;;;;;49.33;26.00;;;3.50;99.90;;;;;;5054412;28;20453;-68
2024/03/07 02:16:23;;;;;;;48.90;26.23;;;3.40;99.90;;;;;;5055499;28;20519;-69
2024/03/07 02:18:51;;;;;;;52.00;25.30;;;3.30;99.90;;;;;;5056683;28;20516;-69
2024/03/07 02:21:21;;;;;;;55.60;25.77;;;3.10;99.90;;;;;;5068021;28;20474;-68
2024/03/07 02:23:49;;;;;;;47.40;26.93;;;2.90;99.90;;;;;;5064873;28;20468;-68
2024/03/07 02:26:17;;;;;;;55.07;27.83;;;2.80;99.90;;;;;;5062547;28;20567;-69
2024/03/07 02:28:45;;;;;;;50.43;26.57;;;2.80;99.90;;;;;;5068564;28;20470;-68
2024/03/07 02:31:14;;;;;;;52.83;26.87;;;2.90;99.90;;;;;;5055545;28;20546;-69
2024/03/07 02:33:42;;;;;;;58.00;29.60;;;2.90;99.90;;;;;;5061888;28;20502;-68
2024/03/07 02:36:10;;;;;;;56.13;29.00;;;2.80;99.90;;;;;;5067656;28;20477;-69
2024/03/07 02:38:39;;;;;;;53.90;27.30;;;2.80;99.90;;;;;;5059531;28;20585;-68
2024/03/07 02:41:07;;;;;;;47.13;26.20;;;2.70;99.90;;;;;;5060752;28;20884;-69
2024/03/07 02:43:37;;;;;;;48.73;26.00;;;2.70;99.90;;;;;;5057268;28;20452;-70
2024/03/07 02:46:06;;;;;;;46.13;25.40;;;2.60;99.90;;;;;;5065052;28;20450;-68
2024/03/07 02:48:34;;;;;;;51.17;26.80;;;2.40;99.90;;;;;;5059970;28;20468;-69
2024/03/07 02:51:02;;;;;;;50.57;27.30;;;2.40;99.90;;;;;;5066088;28;20450;-68
2024/03/07 02:53:30;;;;;;;51.90;28.33;;;2.20;99.90;;;;;;5067362;28;20909;-69
2024/03/07 02:56:00;;;;;;;50.50;28.33;;;2.20;99.90;;;;;;5062256;28;20466;-68
2024/03/07 02:58:28;;;;;;;50.00;27.13;;;2.10;99.90;;;;;;5058642;28;20992;-68
2024/03/07 03:00:59;;;;;;;54.30;29.73;;;2.00;99.90;;;;;;5055804;28;20455;-68
2024/03/07 03:03:27;;;;;;;54.57;28.33;;;1.90;99.90;;;;;;5059835;28;20561;-68
2024/03/07 03:05:55;;;;;;;52.83;28.67;;;1.80;99.90;;;;;;5059891;28;20451;-68
2024/03/07 03:08:23;;;;;;;61.00;30.60;;;1.90;99.90;;;;;;5065487;28;20834;-69
2024/03/07 03:10:52;;;;;;;66.43;29.90;;;1.90;99.90;;;;;;5059808;28;20504;-69
2024/03/07 03:13:21;;;;;;;56.40;29.00;;;2.00;99.90;;;;;;5065843;28;20470;-69
2024/03/07 03:15:49;;;;;;;59.57;29.13;;;2.00;99.90;;;;;;5057689;28;20574;-68
2024/03/07 03:18:17;;;;;;;66.35;31.65;;;2.00;99.90;;;;;;5056180;28;20469;-69
2024/03/07 03:20:47;;;;;;;59.00;29.80;;;2.00;99.90;;;;;;5056016;28;20267;-69
2024/03/07 03:23:16;;;;;;;66.25;31.85;;;2.00;99.90;;;;;;5065904;28;20569;-69
2024/03/07 03:25:49;;;;;;;60.88;31.15;;;2.00;99.90;;;;;;5066273;28;20231;-69
2024/03/07 03:28:18;;;;;;;46.47;25.57;;;2.00;99.90;;;;;;5063431;28;20221;-68
2024/03/07 03:30:50;;;;;;;56.20;28.70;;;1.90;99.90;;;;;;5056286;28;20471;-69
2024/03/07 03:33:18;;;;;;;51.37;27.07;;;1.80;99.90;;;;;;5054959;28;20467;-69
2024/03/07 03:35:46;;;;;;;60.37;30.47;;;1.70;99.90;;;;;;5060082;28;20527;-69
2024/03/07 03:38:15;;;;;;;61.28;29.83;;;1.80;99.90;;;;;;5065616;28;20470;-68
2024/03/07 03:40:44;;;;;;;54.83;27.53;;;1.80;99.90;;;;;;5065343;28;20221;-69
2024/03/07 03:43:12;;;;;;;50.97;28.10;;;1.80;99.90;;;;;;5063229;28;20612;-69
2024/03/07 03:45:40;;;;;;;56.07;29.90;;;1.80;99.90;;;;;;5066786;28;20548;-69
2024/03/07 03:48:09;;;;;;;61.47;29.73;;;1.90;99.90;;;;;;5063492;28;20524;-68
2024/03/07 03:50:38;;;;;;;65.73;30.60;;;2.10;99.90;;;;;;5062367;28;20322;-70
2024/03/07 03:53:05;;;;;;;59.37;31.33;;;2.10;99.90;;;;;;5060216;28;20495;-69
2024/03/07 03:55:36;;;;;;;60.63;29.52;;;2.20;99.90;;;;;;5056436;28;20983;-69
2024/03/07 03:58:05;;;;;;;56.03;27.77;;;2.00;99.90;;;;;;5064143;28;20248;-69
2024/03/07 04:00:33;;;;;;;60.28;29.55;;;1.90;99.90;;;;;;5064709;28;20582;-69
2024/03/07 04:03:02;;;;;;;60.05;28.83;;;1.90;99.90;;;;;;5063900;28;20255;-68
2024/03/07 04:05:32;;;;;;;60.67;30.75;;;1.90;99.90;;;;;;5062007;28;20196;-69
2024/03/07 04:08:00;;;;;;;60.20;30.17;;;1.90;99.90;;;;;;5065869;28;20295;-68
2024/03/07 04:10:28;;;;;;;68.57;29.92;;;1.90;99.90;;;;;;5050506;28;20288;-69
2024/03/07 04:12:56;;;;;;;57.80;28.85;;;1.90;99.90;;;;;;5059117;28;20208;-68
2024/03/07 04:15:26;;;;;;;59.55;29.83;;;1.90;99.90;;;;;;5060114;28;20219;-68
2024/03/07 04:17:54;;;;;;;70.37;30.40;;;1.90;99.90;;;;;;5064455;28;20269;-68
2024/03/07 04:20:24;;;;;;;67.38;30.42;;;2.00;99.90;;;;;;5064440;28;21200;-68
2024/03/07 04:22:55;;;;;;;64.05;29.85;;;2.00;99.90;;;;;;5064356;28;20235;-68
2024/03/07 04:25:24;;;;;;;63.27;30.83;;;2.00;99.90;;;;;;5065351;28;20289;-69
2024/03/07 04:27:52;;;;;;;57.23;29.00;;;2.00;99.90;;;;;;5061483;28;20480;-68
2024/03/07 04:30:20;;;;;;;70.00;31.47;;;2.00;99.90;;;;;;5059407;28;20533;-68
2024/03/07 04:32:49;;;;;;;58.23;30.13;;;2.00;99.90;;;;;;5054837;28;20524;-68
2024/03/07 04:35:17;;;;;;;68.75;30.60;;;2.00;99.90;;;;;;5064672;28;20463;-69
2024/03/07 04:37:47;;;;;;;60.90;30.60;;;1.90;99.90;;;;;;5050271;28;20238;-69
2024/03/07 04:40:16;;;;;;;63.78;31.23;;;1.90;99.90;;;;;;5054761;28;20233;-68
2024/03/07 04:42:48;;;;;;;60.88;30.50;;;1.80;99.90;;;;;;5064419;28;20218;-69
2024/03/07 04:45:16;;;;;;;60.53;29.00;;;1.80;99.90;;;;;;5059875;28;20217;-67
2024/03/07 04:47:46;;;;;;;59.95;29.67;;;1.70;99.90;;;;;;5066308;28;20313;-68
2024/03/07 04:50:17;;;;;;;63.33;30.27;;;1.60;99.90;;;;;;5064751;28;20249;-69
2024/03/07 04:52:47;;;;;;;64.72;33.22;;;1.50;99.90;;;;;;5057622;28;20217;-68
2024/03/07 04:55:18;;;;;;;60.45;30.27;;;1.50;99.90;;;;;;5055499;28;20205;-68
2024/03/07 04:57:46;;;;;;;65.55;32.38;;;1.50;99.90;;;;;;5056452;28;20217;-68
2024/03/07 05:00:18;;;;;;;58.28;29.58;;;1.40;99.90;;;;;;5064136;28;20311;-68
2024/03/07 05:02:48;;;;;;;62.08;29.23;;;1.40;99.90;;;;;;5065257;28;20319;-68
2024/03/07 05:05:21;;;;;;;64.78;30.27;;;1.40;99.90;;;;;;5060995;28;20229;-68
2024/03/07 05:07:51;;;;;;;62.38;27.27;;;1.40;99.90;;;;;;5058087;28;20329;-66
2024/03/07 05:10:21;;;;;;;60.35;27.90;;;1.40;99.90;;;;;;5064926;28;20295;-68
2024/03/07 05:12:50;;;;;;;66.20;31.17;;;1.40;99.90;;;;;;5054766;28;20580;-68
2024/03/07 05:15:18;;;;;;;55.17;29.42;;;1.30;99.90;;;;;;5066705;28;20227;-68
2024/03/07 05:17:46;;;;;;;56.70;28.40;;;1.10;99.90;;;;;;5060050;28;20225;-68
2024/03/07 05:20:14;;;;;;;56.70;28.40;;;1.00;99.90;;;;;;5066608;28;20221;-68
2024/03/07 05:22:44;;;;;;;55.92;29.20;;;1.00;99.90;;;;;;5062603;28;20474;-68
2024/03/07 05:25:12;;;;;;;51.08;26.10;;;0.80;99.90;;;;;;5066457;28;20307;-67
2024/03/07 05:27:41;;;;;;;51.90;27.98;;;0.80;99.90;;;;;;5068360;28;20226;-68
2024/03/07 05:30:11;;;;;;;49.45;25.42;;;0.70;99.90;;;;;;5064259;28;20230;-68
2024/03/07 05:32:40;;;;;;;56.85;28.05;;;0.70;99.90;;;;;;5066149;28;20225;-68
2024/03/07 05:35:10;;;;;;;56.03;27.35;;;0.60;99.90;;;;;;5064279;28;20238;-68
2024/03/07 05:37:41;;;;;;;56.13;28.00;;;0.60;99.90;;;;;;5067140;28;20226;-67
2024/03/07 05:40:10;;;;;;;56.72;28.65;;;0.60;99.90;;;;;;5065346;28;20296;-67
2024/03/07 05:42:38;;;;;;;48.72;26.52;;;0.50;99.90;;;;;;5063540;28;20235;-67
2024/03/07 05:45:08;;;;;;;58.25;27.48;;;0.50;99.90;;;;;;5060333;28;20237;-68
2024/03/07 05:47:36;;;;;;;52.58;27.42;;;0.50;99.90;;;;;;5062853;28;20791;-68
2024/03/07 05:50:08;;;;;;;58.17;27.92;;;0.40;99.90;;;;;;5065271;28;20292;-69
2024/03/07 05:52:36;;;;;;;57.30;28.75;;;0.50;99.90;;;;;;5067239;28;20230;-67
2024/03/07 05:55:06;;;;;;;59.40;29.75;;;0.60;99.90;;;;;;5069096;28;20218;-69
2024/03/07 05:57:34;;;;;;;54.05;26.77;;;0.70;99.90;;;;;;5066438;28;20273;-70
2024/03/07 06:00:09;;;;;;;52.55;26.98;;;0.70;99.90;;;;;;5065616;28;20249;-70
2024/03/07 06:02:39;;;;;;;53.05;26.35;;;0.70;99.90;;;;;;5067026;28;20216;-70
2024/03/07 06:05:12;;;;;;;52.60;26.05;;;0.70;99.90;;;;;;5067743;28;20224;-69
2024/03/07 06:07:40;;;;;;;50.60;26.58;;;0.80;99.90;;;;;;5066376;28;20793;-69
2024/03/07 06:10:11;;;;;;;51.85;24.50;;;0.70;99.90;;;;;;5068035;28;20225;-69
2024/03/07 06:12:45;;;;;;;49.58;23.25;;;0.60;99.90;;;;;;5067371;28;20291;-68
2024/03/07 06:15:28;;;;;;;50.75;24.55;;;0.50;99.90;;;;;;5053290;28;20312;-68
2024/03/07 06:17:57;;;;;;;55.78;25.73;;;0.40;99.90;;;;;;5062088;28;20260;-68
2024/03/07 06:20:25;;;;;;;52.08;27.35;;;0.40;99.90;;;;;;5058179;28;20229;-68
2024/03/07 06:22:53;;;;;;;50.58;24.92;;;0.40;99.90;;;;;;5067804;28;20195;-68
2024/03/07 06:25:34;;;;;;;44.15;24.25;;;0.50;99.90;;;;;;5065142;28;20307;-68
2024/03/07 06:28:08;;;;;;;53.47;26.27;;;0.40;99.90;;;;;;5062465;28;20803;-69
2024/03/07 06:30:37;;;;;;;51.03;25.42;;;0.40;99.90;;;;;;5064421;28;20195;-68
2024/03/07 06:33:07;;;;;;;56.63;27.27;;;0.40;99.90;;;;;;5066407;28;20205;-69
2024/03/07 06:35:36;;;;;;;50.83;25.90;;;0.60;99.90;;;;;;5067226;28;20221;-70
2024/03/07 06:38:05;;;;;;;54.38;24.80;;;0.60;99.90;;;;;;5066161;28;20670;-67
2024/03/07 06:40:33;;;;;;;53.75;25.88;;;0.70;99.90;;;;;;5066816;28;20224;-68
2024/03/07 06:43:03;;;;;;;46.97;25.35;;;0.70;99.90;;;;;;5062651;28;20233;-69
2024/03/07 06:45:31;;;;;;;51.22;24.48;;;0.70;99.90;;;;;;5065474;28;20275;-68
2024/03/07 06:47:59;;;;;;;52.95;27.95;;;0.80;99.90;;;;;;5059892;28;20219;-68
2024/03/07 06:50:29;;;;;;;53.28;28.15;;;0.90;99.90;;;;;;5064057;28;20207;-69
2024/03/07 06:53:06;;;;;;;50.72;27.25;;;0.90;99.90;;;;;;5061925;28;20202;-68
2024/03/07 06:55:35;;;;;;;57.83;29.02;;;1.00;99.90;;;;;;5066250;28;20270;-69
2024/03/07 06:58:04;;;;;;;58.10;29.88;;;1.10;99.90;;;;;;5064599;28;20559;-69
2024/03/07 07:00:35;;;;;;;54.70;28.08;;;1.10;99.90;;;;;;5066186;28;20711;-68
2024/03/07 07:03:04;;;;;;;56.33;26.35;;;1.20;99.90;;;;;;5065781;28;20209;-68
2024/03/07 07:05:34;;;;;;;62.75;29.65;;;1.20;99.90;;;;;;5066031;28;20798;-68
2024/03/07 07:08:04;;;;;;;61.72;28.23;;;1.30;99.90;;;;;;5061024;28;20203;-69
2024/03/07 07:10:32;;;;;;;60.30;29.08;;;1.40;99.90;;;;;;5062034;28;20287;-67
2024/03/07 07:13:00;;;;;;;52.05;25.08;;;1.50;99.90;;;;;;5066539;28;20211;-68
2024/03/07 07:15:28;;;;;;;49.10;26.52;;;1.50;99.90;;;;;;5053928;28;20680;-67
2024/03/07 07:17:56;;;;;;;56.45;28.30;;;1.70;99.90;;;;;;5060106;28;20680;-66
2024/03/07 07:20:25;;;;;;;55.85;26.77;;;1.80;99.90;;;;;;5056312;28;20758;-67
2024/03/07 07:22:54;;;;;;;53.20;26.90;;;1.90;99.90;;;;;;5067245;28;20211;-69
2024/03/07 07:25:22;;;;;;;48.08;25.35;;;1.90;99.90;;;;;;5067309;28;20231;-69
2024/03/07 07:27:53;;;;;;;49.83;25.25;;;2.00;99.90;;;;;;5067331;28;20302;-70
2024/03/07 07:30:22;;;;;;;50.20;24.83;;;2.10;99.90;;;;;;5054733;28;20264;-68
2024/03/07 07:32:51;;;;;;;53.20;25.50;;;2.10;99.90;;;;;;5052841;28;20211;-70
2024/03/07 07:35:20;;;;;;;53.38;27.55;;;2.30;99.90;;;;;;5066574;28;20231;-68
2024/03/07 07:37:51;;;;;;;48.40;25.03;;;2.30;99.90;;;;;;5051584;28;20234;-68
2024/03/07 07:40:22;;;;;;;45.63;23.10;;;2.40;99.90;;;;;;5046863;28;20548;-68
2024/03/07 07:42:52;;;;;;;43.13;23.17;;;2.40;99.90;;;;;;5047071;28;20449;-68
2024/03/07 07:45:22;;;;;;;44.73;23.80;;;2.50;99.90;;;;;;5051317;28;20221;-68
2024/03/07 07:47:51;;;;;;;49.83;25.37;;;2.60;99.90;;;;;;5047160;28;21039;-69
2024/03/07 07:50:21;;;;;;;43.35;23.73;;;2.60;99.90;;;;;;5046832;28;20566;-68
2024/03/07 07:52:51;;;;;;;47.30;23.10;;;2.60;99.90;;;;;;5054146;28;20214;-69
2024/03/07 07:55:21;;;;;;;44.73;22.93;;;2.70;99.90;;;;;;5067327;28;20940;-68
2024/03/07 07:57:52;;;;;;;40.83;21.83;;;2.80;99.90;;;;;;5067026;28;20445;-69
2024/03/07 08:00:24;;;;;;;43.63;22.77;;;3.00;99.90;;;;;;5066884;28;20442;-68
2024/03/07 08:02:54;;;;;;;50.30;27.27;;;3.20;99.90;;;;;;5061951;28;20546;-67
2024/03/07 08:05:23;;;;;;;56.00;35.13;;;3.40;99.90;;;;;;5059005;28;20485;-69
2024/03/07 08:07:52;;;;;;;53.03;32.27;;;3.70;99.90;;;;;;5067103;28;20520;-69
2024/03/07 08:10:23;;;;;;;43.40;25.20;;;4.00;99.90;;;;;;5065383;28;20443;-69
2024/03/07 08:12:51;;;;;;;41.00;24.20;;;4.20;99.90;;;;;;5066581;28;20552;-70
2024/03/07 08:15:23;;;;;;;40.73;22.83;;;4.30;99.90;;;;;;5066968;28;20638;-69
2024/03/07 08:17:51;;;;;;;37.03;21.70;;;4.30;99.90;;;;;;5066431;28;20479;-68
2024/03/07 08:20:22;;;;;;;37.00;22.07;;;4.30;99.90;;;;;;5066657;28;20443;-71
2024/03/07 08:22:52;;;;;;;38.67;23.37;;;4.50;99.90;;;;;;5066485;28;20452;-68
2024/03/07 08:25:23;;;;;;;36.17;22.00;;;4.60;99.90;;;;;;5065846;28;20482;-68
2024/03/07 08:27:52;;;;;;;37.10;21.37;;;4.80;99.90;;;;;;5051007;28;20453;-68
2024/03/07 08:30:21;;;;;;;39.03;21.43;;;4.90;99.90;;;;;;5058068;28;20454;-69
2024/03/07 08:32:51;;;;;;;35.23;21.33;;;4.90;99.90;;;;;;5066279;28;20478;-69
2024/03/07 08:35:20;;;;;;;33.47;19.67;;;4.90;99.90;;;;;;5058172;28;20522;-68
2024/03/07 08:37:52;;;;;;;37.27;21.97;;;5.00;99.90;;;;;;5066472;28;20827;-69
2024/03/07 08:40:23;;;;;;;38.47;21.40;;;5.00;99.90;;;;;;5066500;28;20454;-68
2024/03/07 08:42:57;;;;;;;38.87;21.27;;;5.00;99.90;;;;;;5067222;28;20484;-68
2024/03/07 08:45:26;;;;;;;38.30;21.00;;;5.00;99.90;;;;;;5070601;28;21277;-68
2024/03/07 08:47:55;;;;;;;31.63;19.83;;;5.00;99.90;;;;;;5070402;28;20495;-68
2024/03/07 08:50:26;;;;;;;35.00;19.97;;;5.20;99.90;;;;;;5057563;28;20442;-68
2024/03/07 08:52:55;;;;;;;35.07;20.77;;;5.50;99.90;;;;;;5050368;28;20442;-68
2024/03/07 08:55:26;;;;;;;35.20;20.93;;;5.90;99.90;;;;;;5064232;28;20462;-68
2024/03/07 08:57:54;;;;;;;33.47;19.90;;;6.00;99.90;;;;;;5070632;28;20532;-68
2024/03/07 09:00:23;;;;;;;34.80;19.87;;;6.20;99.90;;;;;;5070614;28;20443;-69
2024/03/07 09:02:57;;;;;;;30.40;18.90;;;6.30;99.90;;;;;;5070343;28;20472;-68
2024/03/07 09:05:26;;;;;;;30.13;19.57;;;6.40;99.90;;;;;;5065282;28;20531;-68
2024/03/07 09:07:55;;;;;;;34.10;19.60;;;6.50;99.90;;;;;;5050027;28;20443;-68
2024/03/07 09:10:25;;;;;;;33.27;19.90;;;6.70;99.90;;;;;;5050533;28;20447;-70
2024/03/07 09:12:54;;;;;;;32.10;19.17;;;6.90;99.90;;;;;;5050221;28;20486;-69
2024/03/07 09:15:23;;;;;;;28.80;18.13;;;7.10;99.90;;;;;;5050327;28;20448;-68
2024/03/07 09:17:52;;;;;;;32.00;19.17;;;7.20;99.90;;;;;;5050185;28;20452;-69
2024/03/07 09:20:21;;;;;;;28.70;18.27;;;7.40;99.90;;;;;;5059806;28;20803;-69
2024/03/07 09:22:50;;;;;;;29.50;19.47;;;7.60;99.90;;;;;;5061892;28;20441;-69
2024/03/07 09:25:19;;;;;;;28.10;18.63;;;7.80;99.90;;;;;;5068918;28;20657;-68
2024/03/07 09:27:49;;;;;;;29.50;19.60;;;7.80;99.90;;;;;;5070213;28;20439;-68
2024/03/07 09:30:21;;;;;;;31.40;20.90;;;7.80;99.90;;;;;;5069702;28;20480;-68
2024/03/07 09:32:49;;;;;;;27.07;18.40;;;8.00;99.90;;;;;;5069652;28;20436;-68
2024/03/07 09:35:18;;;;;;;28.70;19.57;;;8.30;99.90;;;;;;5069540;28;20456;-69
2024/03/07 09:37:45;;;;;;;28.73;19.37;;;8.60;99.90;;;;;;5069690;28;20506;-68
2024/03/07 09:40:14;;;;;;;30.33;19.77;;;8.90;99.90;;;;;;5050396;28;20516;-68
2024/03/07 09:42:45;;;;;;;32.73;19.03;;;9.00;99.90;;;;;;5049622;28;20484;-68
2024/03/07 09:45:17;;;;;;;29.23;19.37;;;8.70;99.90;;;;;;5049496;28;20449;-68
2024/03/07 09:47:48;;;;;;;30.10;20.93;;;8.70;99.90;;;;;;5049789;28;20454;-68
2024/03/07 09:50:19;;;;;;;30.83;20.27;;;9.20;99.90;;;;;;5049012;28;20496;-69
2024/03/07 09:52:49;;;;;;;33.97;20.70;;;9.70;99.90;;;;;;5067000;28;20550;-68
2024/03/07 09:55:19;;;;;;;31.10;19.40;;;9.80;99.90;;;;;;5065595;28;20482;-68
2024/03/07 09:57:48;;;;;;;32.83;20.50;;;9.60;99.90;;;;;;5049323;28;20439;-69
2024/03/07 10:00:24;;;;;;;31.13;19.57;;;9.70;99.90;;;;;;5049279;28;20546;-69
2024/03/07 10:02:57;;;;;;;29.63;19.40;;;9.90;99.90;;;;;;5049165;28;21126;-68
2024/03/07 10:05:29;;;;;;;33.10;22.13;;;9.50;99.90;;;;;;5049175;28;20487;-68
2024/03/07 10:08:00;;;;;;;31.57;20.57;;;9.40;99.90;;;;;;5062976;28;20459;-67
2024/03/07 10:10:29;;;;;;;30.00;18.57;;;9.60;99.90;;;;;;5068657;28;20923;-68
2024/03/07 10:12:59;;;;;;;31.57;19.10;;;9.00;99.90;;;;;;5051161;28;20566;-67
2024/03/07 10:15:30;;;;;;;28.27;19.10;;;9.20;99.90;;;;;;5062521;28;20934;-69
2024/03/07 10:18:00;;;;;;;31.87;20.70;;;9.80;99.90;;;;;;5069082;28;20443;-68
2024/03/07 10:20:28;;;;;;;33.50;20.50;;;10.30;99.90;;;;;;5068868;28;20874;-68
2024/03/07 10:22:56;;;;;;;30.30;18.50;;;10.30;99.90;;;;;;5068275;28;20452;-68
2024/03/07 10:25:27;;;;;;;31.30;19.00;;;10.60;99.90;;;;;;5060712;28;20450;-69
2024/03/07 10:27:58;;;;;;;32.90;21.33;;;10.80;99.90;;;;;;5068270;28;20466;-67
2024/03/07 10:30:27;;;;;;;32.73;20.00;;;11.10;97.10;;;;;;5061104;28;20447;-68
2024/03/07 10:32:58;;;;;;;30.47;19.80;;;11.60;99.90;;;;;;5068454;28;20577;-66
2024/03/07 10:35:30;;;;;;;34.57;21.77;;;12.20;97.70;;;;;;5068606;28;20576;-67
2024/03/07 10:38:00;;;;;;;28.30;18.73;;;12.40;96.30;;;;;;5068487;28;20439;-69
2024/03/07 10:40:30;;;;;;;32.17;21.07;;;12.80;94.60;;;;;;5061074;28;20531;-69
2024/03/07 10:43:02;;;;;;;29.70;20.77;;;13.10;93.90;;;;;;5068334;28;20501;-67
2024/03/07 10:45:31;;;;;;;31.10;21.10;;;13.50;92.90;;;;;;5068029;28;20447;-69
2024/03/07 10:48:01;;;;;;;30.00;22.17;;;13.80;88.70;;;;;;5068321;28;20443;-66
2024/03/07 10:50:43;;;;;;;33.37;22.00;;;14.40;87.30;;;;;;5068282;28;20439;-68
2024/03/07 10:53:22;;;;;;;30.10;21.10;;;14.10;83.20;;;;;;5068299;28;20440;-66
2024/03/07 10:56:08;;;;;;;33.90;20.83;;;14.10;88.00;;;;;;5067966;28;20465;-70
2024/03/07 10:58:43;;;;;;;33.20;22.00;;;13.80;85.30;;;;;;5068131;28;20463;-68
2024/03/07 11:01:14;;;;;;;30.40;21.37;;;12.20;81.50;;;;;;5065750;28;20932;-68
2024/03/07 11:03:43;;;;;;;35.47;21.50;;;10.80;90.40;;;;;;5048256;28;20504;-68
2024/03/07 11:06:12;;;;;;;32.37;21.60;;;10.20;91.70;;;;;;5047459;28;20477;-67
2024/03/07 11:08:40;;;;;;;38.33;22.73;;;9.60;93.60;;;;;;5048157;28;21293;-67
2024/03/07 11:11:08;;;;;;;37.23;22.57;;;8.90;94.60;;;;;;5057244;28;20995;-68
2024/03/07 11:13:38;;;;;;;38.13;22.73;;;8.50;96.70;;;;;;5048415;28;20456;-68
2024/03/07 11:16:07;;;;;;;35.23;21.87;;;8.40;98.50;;;;;;5048057;28;20917;-68
2024/03/07 11:18:35;;;;;;;36.77;22.90;;;8.60;99.90;;;;;;5063124;28;20465;-68
2024/03/07 11:21:07;;;;;;;37.07;21.77;;;8.80;99.90;;;;;;5067202;28;20453;-68
2024/03/07 11:23:41;;;;;;;35.70;23.37;;;9.40;99.90;;;;;;5067504;28;20464;-68
2024/03/07 11:26:10;;;;;;;33.13;22.00;;;9.80;99.40;;;;;;5066940;28;20996;-70
2024/03/07 11:28:47;;;;;;;35.07;22.47;;;10.10;98.50;;;;;;5069235;28;21049;-68
2024/03/07 11:31:26;;;;;;;36.57;22.93;;;10.40;97.00;;;;;;5063264;28;20447;-67
2024/03/07 11:34:14;;;;;;;36.27;23.50;;;10.90;95.70;;;;;;5063593;28;20512;-67
2024/03/07 11:36:46;;;;;;;32.83;21.20;;;11.20;93.10;;;;;;5063880;28;20436;-68
2024/03/07 11:39:42;;;;;;;32.97;21.80;;;10.80;92.60;;;;;;5063723;28;20847;-68
2024/03/07 11:42:21;;;;;;;33.13;21.23;;;10.70;95.50;;;;;;5064688;28;20463;-66
2024/03/07 11:44:51;;;;;;;39.53;22.73;;;10.80;96.00;;;;;;5064184;28;20472;-67
2024/03/07 11:47:19;;;;;;;37.80;23.10;;;10.90;95.20;;;;;;5063636;28;21142;-66
2024/03/07 11:49:48;;;;;;;36.00;21.90;;;10.90;94.40;;;;;;5063101;28;20504;-66
2024/03/07 11:52:17;;;;;;;37.20;23.03;;;10.80;93.80;;;;;;5063142;28;20456;-66
2024/03/07 11:54:48;;;;;;;34.80;22.40;;;10.60;94.50;;;;;;5063665;28;20541;-68
2024/03/07 11:57:19;;;;;;;33.67;22.00;;;10.50;94.40;;;;;;5063468;28;20455;-70
2024/03/07 11:59:52;;;;;;;33.77;22.50;;;10.60;93.70;;;;;;5063948;28;20481;-69
2024/03/07 12:02:22;;;;;;;32.80;21.10;;;10.80;94.40;;;;;;5062839;28;20451;-69
2024/03/07 12:04:51;;;;;;;32.03;21.50;;;10.80;93.90;;;;;;5062624;28;20539;-68
2024/03/07 12:07:22;;;;;;;31.47;21.30;;;10.90;95.00;;;;;;5063206;28;20483;-69
2024/03/07 12:09:53;;;;;;;33.30;24.10;;;10.80;94.50;;;;;;5063105;28;20476;-69
2024/03/07 12:12:22;;;;;;;37.53;23.07;;;10.70;95.20;;;;;;5062858;28;20475;-69
2024/03/07 12:14:52;;;;;;;32.87;21.80;;;10.70;95.30;;;;;;5064388;28;21142;-67
2024/03/07 12:17:21;;;;;;;33.43;22.27;;;10.50;95.70;;;;;;5062787;28;20453;-68
2024/03/07 12:19:51;;;;;;;36.27;23.00;;;10.50;95.30;;;;;;5062990;28;20465;-68
2024/03/07 12:22:22;;;;;;;33.57;22.30;;;10.00;95.60;;;;;;5062870;28;20471;-69
2024/03/07 12:25:02;;;;;;;33.83;22.63;;;9.60;97.80;;;;;;5063493;28;20444;-69
2024/03/07 12:27:31;;;;;;;36.43;23.27;;;9.50;98.10;;;;;;5063434;28;20469;-68
2024/03/07 12:30:02;;;;;;;38.10;23.17;;;9.40;98.80;;;;;;5072311;28;20896;-68
2024/03/07 12:32:31;;;;;;;33.40;22.73;;;9.40;97.80;;;;;;5055414;28;20442;-70
2024/03/07 12:34:59;;;;;;;34.47;22.93;;;9.30;97.50;;;;;;5062425;28;21005;-69
2024/03/07 12:37:29;;;;;;;37.70;23.40;;;9.30;99.00;;;;;;5062627;28;20473;-68
2024/03/07 12:40:01;;;;;;;32.00;21.50;;;9.30;99.10;;;;;;5049841;28;20459;-68
2024/03/07 12:42:32;;;;;;;38.37;23.60;;;9.30;99.00;;;;;;5048825;28;20469;-67
2024/03/07 12:45:04;;;;;;;35.77;21.73;;;9.10;98.30;;;;;;5050454;28;20457;-67
2024/03/07 12:47:32;;;;;;;35.10;22.23;;;9.00;99.40;;;;;;5049444;28;20626;-68